createdAt,value
2022-09-10T00:01:13.062Z,10.23
2022-09-10T00:03:43.738Z,9.97
2022-09-10T00:06:11.260Z,10.17
2022-09-10T00:08:44.299Z,10.37
2022-09-10T00:11:11.436Z,9.37
2022-09-10T00:13:39.704Z,9.33
2022-09-10T00:19:08.908Z,9.37
2022-09-10T00:21:37.549Z,9.33
2022-09-10T00:24:05.310Z,9.57
2022-09-10T00:26:55.448Z,9.33
2022-09-10T00:29:42.652Z,10.17
2022-09-10T00:32:24.793Z,10.03
2022-09-10T00:34:51.586Z,9.70
2022-09-10T00:37:19.194Z,9.30
2022-09-10T00:39:46.053Z,10.40
2022-09-10T00:42:15.597Z,10.00
2022-09-10T00:44:43.239Z,10.47
2022-09-10T00:51:01.537Z,9.73
2022-09-10T00:56:35.155Z,10.20
2022-09-10T01:49:11.150Z,10.03
2022-09-10T01:51:50.308Z,9.53
2022-09-10T01:54:48.862Z,9.50
2022-09-10T01:57:29.948Z,8.73
2022-09-10T02:00:17.040Z,9.20
2022-09-10T02:03:11.754Z,9.43
2022-09-10T02:08:14.658Z,8.63
2022-09-10T02:11:20.121Z,8.03
2022-09-10T02:16:49.513Z,7.30
2022-09-10T02:19:17.319Z,7.37
2022-09-10T02:21:44.623Z,7.23
2022-09-10T02:24:12.879Z,6.77
2022-09-10T02:26:42.675Z,7.67
2022-09-10T02:29:15.538Z,7.27
2022-09-10T02:37:59.403Z,7.13
2022-09-10T02:46:53.303Z,7.63
2022-09-10T02:49:41.705Z,7.40
2022-09-10T02:52:08.766Z,8.07
2022-09-10T02:54:53.046Z,7.80
2022-09-10T02:57:34.707Z,7.80
2022-09-10T03:00:26.743Z,7.57
2022-09-10T03:03:37.986Z,8.27
2022-09-10T03:06:35.302Z,8.80
2022-09-10T03:09:11.231Z,8.37
2022-09-10T03:11:44.034Z,8.63
2022-09-10T03:29:48.775Z,8.27
2022-09-10T03:40:35.811Z,9.17
2022-09-10T03:44:07.616Z,10.07
2022-09-10T03:47:16.617Z,10.10
2022-09-10T03:52:30.170Z,11.20
2022-09-10T05:06:31.752Z,10.40
2022-09-10T05:42:16.193Z,7.67
2022-09-10T05:51:13.604Z,7.80
2022-09-10T06:00:13.503Z,8.13
2022-09-10T06:02:46.525Z,7.33
2022-09-10T06:05:13.408Z,7.40
2022-09-10T06:07:40.416Z,7.47
2022-09-10T06:10:07.692Z,6.60
2022-09-10T06:12:34.500Z,6.40
2022-09-10T06:15:01.270Z,6.93
2022-09-10T06:17:28.652Z,6.40
2022-09-10T06:19:55.503Z,6.70
2022-09-10T06:22:22.317Z,6.50
2022-09-10T06:24:49.346Z,7.03
2022-09-10T06:27:17.129Z,6.90
2022-09-10T06:29:43.965Z,6.50
2022-09-10T06:32:13.883Z,6.70
2022-09-10T06:34:40.771Z,7.73
2022-09-10T06:37:07.627Z,6.80
2022-09-10T06:39:34.566Z,7.10
2022-09-10T06:42:01.470Z,8.47
2022-09-10T06:44:29.318Z,7.23
2022-09-10T06:47:39.410Z,7.83
2022-09-10T06:49:43.080Z,7.30
2022-09-10T06:52:11.613Z,7.37
2022-09-10T06:54:38.553Z,6.70
2022-09-10T06:57:05.527Z,7.60
2022-09-10T06:59:32.435Z,6.93
2022-09-10T07:02:00.475Z,7.23
2022-09-10T07:04:32.225Z,6.97
2022-09-10T07:07:02.169Z,7.17
2022-09-10T07:09:32.100Z,7.20
2022-09-10T07:11:59.208Z,7.70
2022-09-10T07:14:27.072Z,7.17
2022-09-10T07:16:54.377Z,6.90
2022-09-10T07:19:21.399Z,7.27
2022-09-10T07:21:48.152Z,7.07
2022-09-10T07:24:14.938Z,6.93
2022-09-10T07:26:42.102Z,7.43
2022-09-10T07:29:09.034Z,7.27
2022-09-10T07:31:38.365Z,6.80
2022-09-10T07:34:05.333Z,6.83
2022-09-10T07:36:32.578Z,6.87
2022-09-10T07:39:02.082Z,6.80
2022-09-10T07:41:38.697Z,7.50
2022-09-10T07:44:17.814Z,7.57
2022-09-10T07:46:46.595Z,7.47
2022-09-10T07:49:13.504Z,7.87
2022-09-10T07:52:11.216Z,7.43
2022-09-10T07:54:47.131Z,8.47
2022-09-10T07:57:14.276Z,7.90
2022-09-10T07:59:41.474Z,7.43
2022-09-10T08:02:22.066Z,8.50
2022-09-10T08:05:07.008Z,9.07
2022-09-10T08:07:34.142Z,8.83
2022-09-10T08:10:00.933Z,9.67
2022-09-10T08:16:54.840Z,10.37
2022-09-10T08:19:30.895Z,10.67
2022-09-10T08:21:57.898Z,10.70
2022-09-10T08:24:24.877Z,9.87
2022-09-10T08:27:07.084Z,9.60
2022-09-10T08:32:43.048Z,9.20
2022-09-10T08:35:09.956Z,9.27
2022-09-10T08:37:38.151Z,9.60
2022-09-10T08:40:06.004Z,9.67
2022-09-10T08:42:40.493Z,9.50
2022-09-10T08:45:43.679Z,9.37
2022-09-10T08:51:19.826Z,9.50
2022-09-10T08:54:02.419Z,9.50
2022-09-10T08:56:31.437Z,10.03
2022-09-10T08:59:06.125Z,10.50
2022-09-10T09:01:50.985Z,10.20
2022-09-10T09:05:05.603Z,10.07
2022-09-10T09:10:52.273Z,10.40
2022-09-10T09:17:34.138Z,10.33
2022-09-10T09:23:19.570Z,10.20
2022-09-10T09:30:42.193Z,10.07
2022-09-10T09:33:16.453Z,10.97
2022-09-10T09:35:57.717Z,10.67
2022-09-10T09:38:43.962Z,12.73
2022-09-10T09:52:44.119Z,10.93
2022-09-10T09:55:23.563Z,10.93
2022-09-10T09:58:12.916Z,11.13
2022-09-10T10:00:39.701Z,11.70
2022-09-10T10:03:18.138Z,12.03
2022-09-10T10:05:45.210Z,10.93
2022-09-10T10:08:30.822Z,11.50
2022-09-10T10:10:58.657Z,10.53
2022-09-10T10:13:40.427Z,11.13
2022-09-10T10:16:28.562Z,11.13
2022-09-10T10:18:55.422Z,10.40
2022-09-10T10:21:31.775Z,10.67
2022-09-10T10:23:59.096Z,10.43
2022-09-10T10:26:34.386Z,10.97
2022-09-10T10:29:06.479Z,10.70
2022-09-10T10:31:49.581Z,10.10
2022-09-10T10:34:47.635Z,9.63
2022-09-10T10:37:52.224Z,10.17
2022-09-10T10:41:14.900Z,10.40
2022-09-10T10:44:13.465Z,10.67
2022-09-10T10:47:32.918Z,11.33
2022-09-10T11:01:20.925Z,9.43
2022-09-10T11:03:53.783Z,10.07
2022-09-10T11:06:24.769Z,9.93
2022-09-10T11:09:02.695Z,10.73
2022-09-10T11:11:40.011Z,9.37
2022-09-10T11:14:23.204Z,9.30
2022-09-10T11:16:58.734Z,9.40
2022-09-10T11:20:11.123Z,8.73
2022-09-10T11:22:49.000Z,8.53
2022-09-10T11:25:56.673Z,9.07
2022-09-10T11:28:41.225Z,8.53
2022-09-10T11:31:38.639Z,8.97
2022-09-10T11:34:23.081Z,8.73
2022-09-10T11:37:00.467Z,8.63
2022-09-10T11:39:34.942Z,8.53
2022-09-10T11:42:27.491Z,9.20
2022-09-10T11:45:08.026Z,8.80
2022-09-10T11:51:38.460Z,8.30
2022-09-10T11:54:10.885Z,8.90
2022-09-10T11:57:01.397Z,8.57
2022-09-10T11:59:43.328Z,8.60
2022-09-10T12:02:43.978Z,8.20
2022-09-10T12:05:34.235Z,6.97
2022-09-10T12:08:29.474Z,6.67
2022-09-10T12:11:25.127Z,6.40
2022-09-10T12:13:52.833Z,7.20
2022-09-10T12:17:02.163Z,7.20
2022-09-10T12:19:37.842Z,7.40
2022-09-10T12:22:16.420Z,7.10
2022-09-10T12:24:52.609Z,6.73
2022-09-10T12:27:20.468Z,7.03
2022-09-10T12:29:47.989Z,6.70
2022-09-10T12:32:57.876Z,6.93
2022-09-10T12:35:30.976Z,7.00
2022-09-10T12:38:35.067Z,7.70
2022-09-10T12:41:29.552Z,7.53
2022-09-10T12:44:34.508Z,8.07
2022-09-10T12:47:16.518Z,7.83
2022-09-10T12:49:59.777Z,8.40
2022-09-10T12:52:41.952Z,7.77
2022-09-10T12:55:36.633Z,8.30
2022-09-10T12:58:41.121Z,7.33
2022-09-10T13:01:31.118Z,6.97
2022-09-10T13:04:02.980Z,6.83
2022-09-10T13:06:39.831Z,6.77
2022-09-10T13:09:19.700Z,7.00
2022-09-10T13:11:57.304Z,6.77
2022-09-10T13:14:30.791Z,6.70
2022-09-10T13:16:57.832Z,6.67
2022-09-10T13:19:24.554Z,7.90
2022-09-10T13:21:53.963Z,8.00
2022-09-10T13:24:32.342Z,7.90
2022-09-10T13:27:39.922Z,6.80
2022-09-10T13:30:23.783Z,6.60
2022-09-10T13:33:04.869Z,6.90
2022-09-10T13:36:14.997Z,6.80
2022-09-10T13:38:47.910Z,6.90
2022-09-10T13:41:54.066Z,7.97
2022-09-10T13:44:39.975Z,7.33
2022-09-10T13:47:28.248Z,8.57
2022-09-10T13:50:58.174Z,8.20
2022-09-10T13:54:09.256Z,8.83
2022-09-10T15:00:36.994Z,7.20
2022-09-10T15:03:28.793Z,7.27
2022-09-10T15:23:56.620Z,8.50
2022-09-10T15:26:23.655Z,10.10
2022-09-10T15:28:50.487Z,9.30
2022-09-10T15:31:18.385Z,9.90
2022-09-10T15:34:05.624Z,10.20
2022-09-10T15:36:44.690Z,11.57
2022-09-10T15:39:12.811Z,12.23
2022-09-10T15:41:44.221Z,12.40
2022-09-10T15:44:12.904Z,17.07
2022-09-10T15:46:52.956Z,12.87
2022-09-10T15:49:19.730Z,12.00
2022-09-10T15:51:46.844Z,10.57
2022-09-10T15:54:13.993Z,11.07
2022-09-10T16:04:51.994Z,9.80
2022-09-10T16:23:43.343Z,9.97
2022-09-10T16:26:34.952Z,14.97
2022-09-10T16:31:11.043Z,11.43
2022-09-10T17:39:35.843Z,12.80
2022-09-10T17:42:02.793Z,13.03
2022-09-10T17:44:29.608Z,12.83
2022-09-10T17:47:14.879Z,12.67
2022-09-10T17:49:43.181Z,12.77
2022-09-10T17:52:10.003Z,12.33
2022-09-10T17:54:39.495Z,12.00
2022-09-10T17:57:06.577Z,11.93
2022-09-10T17:59:34.226Z,12.60
2022-09-10T18:02:01.726Z,11.93
2022-09-10T18:04:28.590Z,10.70
2022-09-10T18:06:55.587Z,11.00
2022-09-10T18:09:26.692Z,10.80
2022-09-10T18:12:09.010Z,10.57
2022-09-10T18:14:38.834Z,10.40
2022-09-10T18:17:05.755Z,10.13
2022-09-10T18:19:41.712Z,10.53
2022-09-10T18:22:08.496Z,10.23
2022-09-10T18:24:35.271Z,10.53
2022-09-10T18:27:04.655Z,11.07
2022-09-10T18:29:31.694Z,10.23
2022-09-10T18:32:01.039Z,10.40
2022-09-10T18:34:30.946Z,10.17
2022-09-10T18:37:04.648Z,10.77
2022-09-10T18:39:33.841Z,10.30
2022-09-10T18:42:06.787Z,10.33
2022-09-10T18:44:36.994Z,9.30
2022-09-10T18:47:17.707Z,10.00
2022-09-10T18:49:56.367Z,9.67
2022-09-10T18:52:23.417Z,8.83
2022-09-10T18:54:57.969Z,8.83
2022-09-10T18:57:24.845Z,9.20
2022-09-10T18:59:57.933Z,8.40
2022-09-10T19:02:24.832Z,8.27
2022-09-10T19:05:10.686Z,8.30
2022-09-10T19:07:38.651Z,8.37
2022-09-10T19:10:07.177Z,8.60
2022-09-10T19:12:34.384Z,8.03
2022-09-10T19:15:01.249Z,7.87
2022-09-10T19:17:28.103Z,7.90
2022-09-10T19:20:04.475Z,8.50
2022-09-10T19:22:31.486Z,8.73
2022-09-10T19:24:58.281Z,9.00
2022-09-10T19:27:25.196Z,9.10
2022-09-10T19:29:52.259Z,8.67
2022-09-10T19:32:19.893Z,8.60
2022-09-10T19:34:50.301Z,9.10
2022-09-10T19:37:17.335Z,8.40
2022-09-10T19:39:44.614Z,8.83
2022-09-10T19:42:12.570Z,8.50
2022-09-10T19:44:39.468Z,8.50
2022-09-10T19:47:26.858Z,7.93
2022-09-10T19:49:59.191Z,8.10
2022-09-10T19:52:36.099Z,8.67
2022-09-10T19:55:03.712Z,9.53
2022-09-10T19:57:31.640Z,8.83
2022-09-10T19:59:58.656Z,8.13
2022-09-10T20:02:25.651Z,7.53
2022-09-10T20:04:52.773Z,6.63
2022-09-10T20:07:19.873Z,6.37
2022-09-10T20:09:47.667Z,6.10
2022-09-10T20:12:16.283Z,5.70
2022-09-10T20:14:55.730Z,5.90
2022-09-10T20:17:22.529Z,5.20
2022-09-10T20:19:58.539Z,5.90
2022-09-10T20:22:25.318Z,6.20
2022-09-10T20:24:52.444Z,6.60
2022-09-10T20:27:19.276Z,6.50
2022-09-10T20:29:46.288Z,6.57
2022-09-10T20:32:13.243Z,7.37
2022-09-10T20:34:40.194Z,7.07
2022-09-10T20:37:07.006Z,6.40
2022-09-10T20:39:36.446Z,6.57
2022-09-10T20:42:29.375Z,6.80
2022-09-10T20:44:56.207Z,6.10
2022-09-10T20:47:37.453Z,6.00
2022-09-10T20:50:14.234Z,5.30
2022-09-10T20:52:50.151Z,5.30
2022-09-10T20:55:20.069Z,4.53
2022-09-10T20:57:58.680Z,4.83
2022-09-10T21:03:23.611Z,4.80
2022-09-10T21:05:56.642Z,4.50
2022-09-10T21:08:25.117Z,4.50
2022-09-10T21:10:52.047Z,5.00
2022-09-10T21:16:45.319Z,4.80
2022-09-10T21:19:17.178Z,4.90
2022-09-10T21:21:45.344Z,5.07
2022-09-10T21:24:14.672Z,4.80
2022-09-10T21:26:45.494Z,5.07
2022-09-10T21:29:18.924Z,4.90
2022-09-10T21:31:47.089Z,5.37
2022-09-10T21:34:14.927Z,4.83
2022-09-10T21:36:54.160Z,5.00
2022-09-10T21:39:47.931Z,4.93
2022-09-10T21:42:17.224Z,4.90
2022-09-10T21:44:44.083Z,5.27
2022-09-10T21:47:11.191Z,5.77
2022-09-10T21:49:47.342Z,5.63
2022-09-10T21:52:35.918Z,6.10
2022-09-10T21:55:04.940Z,6.00
2022-09-10T21:58:10.204Z,6.13
2022-09-10T22:03:39.994Z,6.20
2022-09-10T22:06:26.976Z,7.37
2022-09-10T22:11:46.833Z,8.13
2022-09-10T22:14:16.314Z,8.10
2022-09-10T22:16:44.154Z,9.10
2022-09-10T22:19:30.820Z,9.03
2022-09-10T22:22:03.598Z,9.33
2022-09-10T22:24:30.578Z,9.93
2022-09-10T22:27:12.425Z,9.77
2022-09-10T22:29:45.386Z,8.90
2022-09-10T22:32:21.374Z,9.60
2022-09-10T22:34:49.012Z,9.67
2022-09-10T22:37:15.757Z,10.03
2022-09-10T22:39:42.997Z,9.80
2022-09-10T22:42:10.802Z,9.80
2022-09-10T22:44:37.659Z,9.93
2022-09-10T22:47:06.929Z,9.63
2022-09-10T22:49:34.034Z,9.87
2022-09-10T22:52:22.763Z,9.60
2022-09-10T22:54:49.575Z,9.67
2022-09-10T22:57:24.153Z,9.33
2022-09-10T22:59:51.079Z,9.30
2022-09-10T23:02:17.921Z,9.43
2022-09-10T23:04:48.402Z,8.93
2022-09-10T23:07:16.707Z,9.57
2022-09-10T23:09:50.252Z,9.67
2022-09-10T23:12:22.551Z,9.87
2022-09-10T23:14:57.963Z,9.70
2022-09-10T23:17:34.265Z,9.10
2022-09-10T23:20:21.622Z,9.37
2022-09-10T23:22:48.611Z,9.07
2022-09-10T23:25:21.057Z,9.60
2022-09-10T23:27:54.425Z,8.97
2022-09-10T23:30:23.065Z,9.00
2022-09-10T23:32:49.901Z,9.57
2022-09-10T23:35:19.784Z,8.13
2022-09-10T23:37:48.968Z,8.37
2022-09-10T23:40:27.196Z,8.33
2022-09-10T23:42:55.939Z,8.87
2022-09-10T23:45:23.087Z,9.10
2022-09-10T23:50:30.637Z,8.83
2022-09-10T23:55:50.870Z,9.30
2022-09-10T23:58:33.122Z,9.00
